Terminal Aerodrome Forecast
Issued by NWS Twin Cities, MN

Home | Current Version | Previous Version | Graphics & Text | Print | Product List | Glossary On
Versions: 1 2 3 4 5 6 7 8 9 10 11 12 13 14 15 16 17 18 19 20 21 22 23 24 25
185
FTUS43 KMPX 230520
TAFMSP
TAF
KMSP 230520Z 2306/2412 34007KT P6SM BKN090
     FM231400 36010KT P6SM SCT020 OVC035 PROB30 2317/2323 -SHRA
      BKN025
     FM240100 01007KT P6SM BKN040=

USA.gov is the U.S. government's official web portal to all federal, state and local government web resources and services.